Time;durP1;ratioP1;P1;durP2;ratioP2;P2;SDS_P1;SDS_P2;PMS_P1;PMS_P2;Temp;Humidity;BMP_temperature;BMP_pressure;BME280_temperature;BME280_humidity;BME280_pressure;Samples;Min_cycle;Max_cycle;Signal;HPM_P1;HPM_P2
2022/08/01 00:01:28;;;;;;;1.95;1.30;;;21.50;70.40;;;;;;4997179;28;20883;-75
2022/08/01 00:03:56;;;;;;;1.70;1.30;;;21.50;70.40;;;;;;4997987;28;20464;-75
2022/08/01 00:06:25;;;;;;;1.55;1.30;;;21.50;70.50;;;;;;5009602;28;20524;-75
2022/08/01 00:08:52;;;;;;;2.73;1.40;;;21.50;70.60;;;;;;4998481;28;20446;-76
2022/08/01 00:11:19;;;;;;;2.13;1.10;;;21.50;70.40;;;;;;5001337;28;20442;-74
2022/08/01 00:13:45;;;;;;;2.30;1.50;;;21.50;70.50;;;;;;5001922;28;20445;-74
2022/08/01 00:16:12;;;;;;;2.20;1.20;;;21.50;70.80;;;;;;4998386;28;20442;-76
2022/08/01 00:18:39;;;;;;;3.20;1.40;;;21.50;71.10;;;;;;4996089;28;20524;-75
2022/08/01 00:21:07;;;;;;;2.80;1.55;;;21.50;70.70;;;;;;4996865;28;20450;-74
2022/08/01 00:23:34;;;;;;;2.83;1.50;;;21.50;70.90;;;;;;4992461;28;20937;-75
2022/08/01 00:26:01;;;;;;;2.00;1.40;;;21.50;71.20;;;;;;4999167;28;20445;-75
2022/08/01 00:28:28;;;;;;;2.00;1.70;;;21.40;71.10;;;;;;4999487;28;20435;-75
2022/08/01 00:30:55;;;;;;;1.50;1.40;;;21.40;71.00;;;;;;4995709;28;20433;-75
2022/08/01 00:33:22;;;;;;;3.53;1.50;;;21.40;71.10;;;;;;5006570;28;20442;-75
2022/08/01 00:35:48;;;;;;;1.80;1.30;;;21.40;70.80;;;;;;5001617;28;20462;-76
2022/08/01 00:38:16;;;;;;;2.00;1.40;;;21.40;71.00;;;;;;4995902;28;20526;-75
2022/08/01 00:40:43;;;;;;;2.90;1.42;;;21.40;70.90;;;;;;4999366;28;20465;-75
2022/08/01 00:43:10;;;;;;;2.10;1.60;;;21.40;71.00;;;;;;5004744;28;20434;-74
2022/08/01 00:45:37;;;;;;;2.67;1.60;;;21.40;71.30;;;;;;4993479;28;20456;-76
2022/08/01 00:48:04;;;;;;;2.10;1.65;;;21.40;71.30;;;;;;4999661;28;20446;-72
2022/08/01 00:50:32;;;;;;;2.22;1.48;;;21.40;71.10;;;;;;5007406;28;20443;-76
2022/08/01 00:52:59;;;;;;;2.55;1.60;;;21.40;71.10;;;;;;4995352;28;20876;-75
2022/08/01 00:55:27;;;;;;;1.80;1.20;;;21.40;71.50;;;;;;4999709;28;20436;-75
2022/08/01 00:57:55;;;;;;;1.95;1.67;;;21.30;72.00;;;;;;4999736;28;20489;-75
2022/08/01 01:00:22;;;;;;;2.08;1.88;;;21.20;73.50;;;;;;4994512;28;20445;-76
2022/08/01 01:02:49;;;;;;;2.55;1.85;;;21.00;74.60;;;;;;4993836;28;20891;-75
2022/08/01 01:05:16;;;;;;;2.25;2.05;;;20.90;76.10;;;;;;4996199;28;20490;-75
2022/08/01 01:07:49;;;;;;;2.23;2.10;;;20.70;77.60;;;;;;5002683;28;20432;-76
2022/08/01 01:10:21;;;;;;;2.70;2.00;;;20.60;78.60;;;;;;5001639;28;20431;-76
2022/08/01 01:12:55;;;;;;;2.08;1.90;;;20.50;79.00;;;;;;4995887;28;20476;-75
2022/08/01 01:15:27;;;;;;;2.50;1.80;;;20.50;79.20;;;;;;5001728;28;20435;-75
2022/08/01 01:17:58;;;;;;;2.10;1.90;;;20.60;79.00;;;;;;5004187;28;20538;-72
2022/08/01 01:20:31;;;;;;;2.20;2.00;;;20.60;78.80;;;;;;4999444;28;20440;-76
2022/08/01 01:23:16;;;;;;;2.22;2.03;;;20.60;78.90;;;;;;4994694;28;20440;-76
2022/08/01 01:26:02;;;;;;;2.40;2.20;;;20.50;78.90;;;;;;5000329;28;20433;-75
2022/08/01 01:28:36;;;;;;;2.50;2.30;;;20.50;78.80;;;;;;4999553;28;20432;-75
2022/08/01 01:31:09;;;;;;;3.00;2.30;;;20.60;78.70;;;;;;4998333;28;20539;-75
2022/08/01 01:33:37;;;;;;;3.90;2.70;;;20.50;78.90;;;;;;4995750;28;20508;-77
2022/08/01 01:36:08;;;;;;;2.67;2.47;;;20.50;79.10;;;;;;4999088;28;20550;-75
2022/08/01 01:38:41;;;;;;;2.47;2.28;;;20.50;79.10;;;;;;4997753;28;20444;-76
2022/08/01 01:41:10;;;;;;;3.20;2.40;;;20.50;79.10;;;;;;4999796;28;20442;-76
2022/08/01 01:43:38;;;;;;;2.97;2.67;;;20.50;79.00;;;;;;4995197;28;20481;-75
2022/08/01 01:46:08;;;;;;;2.90;2.53;;;20.50;79.10;;;;;;4993566;28;20789;-75
2022/08/01 01:48:36;;;;;;;3.13;2.45;;;20.50;79.20;;;;;;4990700;28;20458;-76
2022/08/01 01:51:04;;;;;;;2.70;2.50;;;20.60;79.10;;;;;;4992159;28;20846;-76
2022/08/01 01:53:34;;;;;;;3.53;2.78;;;20.60;78.90;;;;;;4996172;28;20476;-75
2022/08/01 01:56:02;;;;;;;2.60;2.40;;;20.60;78.90;;;;;;5008783;28;20504;-76
2022/08/01 01:58:31;;;;;;;2.53;2.33;;;20.60;79.20;;;;;;4996840;28;20438;-75
2022/08/01 02:01:01;;;;;;;2.92;2.40;;;20.50;79.50;;;;;;4995724;28;20902;-77
2022/08/01 02:03:30;;;;;;;2.50;2.30;;;20.50;79.60;;;;;;4997241;28;20497;-75
2022/08/01 02:05:58;;;;;;;2.90;2.40;;;20.50;79.70;;;;;;4995345;28;20547;-75
2022/08/01 02:08:26;;;;;;;2.88;2.42;;;20.40;79.90;;;;;;4995530;28;20440;-76
2022/08/01 02:13:42;;;;;;;2.60;2.40;;;20.30;80.30;;;;;;4998679;28;20439;-75
2022/08/01 02:16:11;;;;;;;2.88;2.40;;;20.30;80.50;;;;;;4999042;28;20922;-75
2022/08/01 02:18:39;;;;;;;2.40;2.20;;;20.30;80.60;;;;;;5006782;28;20447;-75
2022/08/01 02:21:11;;;;;;;3.47;2.60;;;20.30;80.80;;;;;;5011271;23;20525;-72
2022/08/01 02:23:41;;;;;;;2.70;2.33;;;20.30;80.60;;;;;;4980672;28;20434;-73
2022/08/01 02:26:10;;;;;;;2.97;2.42;;;20.30;80.50;;;;;;4988300;28;20432;-70
2022/08/01 02:28:46;;;;;;;4.07;2.55;;;20.30;80.70;;;;;;5005501;28;20496;-70
2022/08/01 02:31:17;;;;;;;4.55;2.90;;;20.30;80.30;;;;;;4994452;28;20435;-71
2022/08/01 02:33:51;;;;;;;2.90;2.60;;;20.30;80.20;;;;;;4985579;28;20432;-71
2022/08/01 02:36:20;;;;;;;3.83;2.40;;;20.40;80.10;;;;;;4999510;28;20443;-71
2022/08/01 02:38:47;;;;;;;3.10;2.80;;;20.40;80.10;;;;;;4994221;28;20449;-71
2022/08/01 02:41:20;;;;;;;3.78;3.20;;;20.40;80.10;;;;;;5003067;28;20432;-70
2022/08/01 02:43:50;;;;;;;2.67;2.40;;;20.40;80.10;;;;;;5014004;28;20434;-73
2022/08/01 02:46:22;;;;;;;2.90;2.70;;;20.40;80.10;;;;;;5007024;28;20432;-70
2022/08/01 02:48:52;;;;;;;2.80;2.60;;;20.30;80.10;;;;;;5015005;28;20443;-71
2022/08/01 02:51:22;;;;;;;3.65;2.75;;;20.30;80.30;;;;;;5008111;28;20437;-70
2022/08/01 02:53:51;;;;;;;4.65;3.00;;;20.30;80.50;;;;;;5005071;28;20481;-72
2022/08/01 02:56:19;;;;;;;4.05;3.13;;;20.30;80.50;;;;;;4989727;28;20486;-72
2022/08/01 02:58:47;;;;;;;3.30;3.00;;;20.30;80.40;;;;;;4997094;28;20531;-71
2022/08/01 03:01:15;;;;;;;3.47;2.88;;;20.30;81.60;;;;;;4985701;28;20439;-71
2022/08/01 03:03:43;;;;;;;3.60;3.30;;;20.20;80.60;;;;;;4981564;28;20551;-71
2022/08/01 03:06:12;;;;;;;3.72;2.90;;;20.30;80.80;;;;;;4990264;28;20438;-72
2022/08/01 03:08:40;;;;;;;3.20;2.90;;;20.20;80.90;;;;;;4989940;28;20824;-72
2022/08/01 03:11:09;;;;;;;4.43;2.80;;;20.20;81.10;;;;;;4986402;28;20437;-72
2022/08/01 03:13:37;;;;;;;3.05;2.75;;;20.20;80.90;;;;;;4990347;28;20492;-71
2022/08/01 03:16:05;;;;;;;3.90;2.95;;;20.20;80.90;;;;;;4991047;28;20805;-71
2022/08/01 03:18:34;;;;;;;4.50;3.13;;;20.20;80.80;;;;;;4995273;28;20750;-71
2022/08/01 03:21:02;;;;;;;3.80;3.15;;;20.30;80.80;;;;;;4991441;28;20433;-70
2022/08/01 03:23:32;;;;;;;3.42;3.13;;;20.30;80.90;;;;;;4994438;28;20439;-71
2022/08/01 03:26:01;;;;;;;3.40;2.77;;;20.20;80.80;;;;;;4990808;28;20437;-71
2022/08/01 03:28:30;;;;;;;4.10;3.70;;;20.30;80.80;;;;;;4991248;28;20440;-72
2022/08/01 03:30:58;;;;;;;4.57;3.60;;;20.30;80.50;;;;;;4990889;28;20434;-70
2022/08/01 03:33:25;;;;;;;3.13;2.83;;;20.20;80.60;;;;;;4987021;28;20431;-71
2022/08/01 03:35:55;;;;;;;4.10;3.50;;;20.20;80.90;;;;;;5005789;28;20418;-71
2022/08/01 03:38:25;;;;;;;4.13;3.72;;;20.20;81.00;;;;;;4990136;28;20524;-71
2022/08/01 03:40:57;;;;;;;4.20;3.90;;;20.20;80.90;;;;;;4991776;28;20932;-71
2022/08/01 03:43:31;;;;;;;5.65;4.50;;;20.20;81.00;;;;;;4981116;28;20434;-71
2022/08/01 03:46:04;;;;;;;4.38;3.97;;;20.10;81.50;;;;;;4988189;28;21214;-72
2022/08/01 03:48:36;;;;;;;3.80;3.50;;;20.10;81.60;;;;;;4992948;28;20504;-70
2022/08/01 03:51:04;;;;;;;5.05;4.28;;;20.10;81.50;;;;;;4977172;28;20449;-72
2022/08/01 03:53:32;;;;;;;4.50;4.10;;;20.20;81.50;;;;;;4984267;28;20434;-71
2022/08/01 03:56:03;;;;;;;6.18;4.18;;;20.20;81.10;;;;;;4992588;28;20812;-70
2022/08/01 03:58:31;;;;;;;5.03;4.30;;;20.20;80.90;;;;;;4987366;28;20445;-70
2022/08/01 04:00:59;;;;;;;4.63;4.22;;;20.30;81.00;;;;;;4993242;28;20935;-71
2022/08/01 04:03:26;;;;;;;5.27;4.77;;;20.20;81.00;;;;;;4981410;28;20460;-71
2022/08/01 04:05:53;;;;;;;5.05;4.53;;;20.20;81.30;;;;;;4995094;28;20440;-70
2022/08/01 04:08:20;;;;;;;4.63;4.22;;;20.30;81.10;;;;;;4994781;28;20938;-71
2022/08/01 04:10:47;;;;;;;5.20;4.70;;;20.30;80.80;;;;;;4990473;28;20841;-71
2022/08/01 04:13:15;;;;;;;5.07;4.38;;;20.30;81.00;;;;;;4984293;28;20440;-70
2022/08/01 04:15:41;;;;;;;5.38;4.85;;;20.30;80.90;;;;;;4994387;28;20942;-71
2022/08/01 04:18:08;;;;;;;5.60;4.60;;;20.30;80.80;;;;;;4996880;28;20951;-71
2022/08/01 04:20:35;;;;;;;5.00;4.60;;;20.30;81.10;;;;;;4988381;28;20440;-71
2022/08/01 04:23:02;;;;;;;4.85;4.28;;;20.40;80.70;;;;;;5017091;28;20440;-71
2022/08/01 04:25:33;;;;;;;5.30;4.40;;;20.50;80.70;;;;;;4993264;28;21284;-73
2022/08/01 04:28:03;;;;;;;5.30;4.80;;;20.50;80.20;;;;;;4996938;28;20980;-70
2022/08/01 04:30:35;;;;;;;5.75;5.00;;;20.50;80.20;;;;;;4981959;28;20464;-70
2022/08/01 04:33:05;;;;;;;5.30;4.80;;;20.40;80.50;;;;;;4977821;28;20439;-72
2022/08/01 04:35:34;;;;;;;5.40;5.00;;;20.40;80.70;;;;;;4985827;28;20442;-74
2022/08/01 04:38:02;;;;;;;6.03;4.85;;;20.40;81.00;;;;;;4981192;28;20429;-73
2022/08/01 04:40:30;;;;;;;5.40;4.90;;;20.40;81.10;;;;;;4977083;28;21003;-75
2022/08/01 04:42:57;;;;;;;5.30;4.80;;;20.40;81.20;;;;;;4981773;28;20470;-73
2022/08/01 04:45:24;;;;;;;5.10;4.60;;;20.40;81.00;;;;;;4980002;28;20444;-73
2022/08/01 04:47:53;;;;;;;6.10;5.60;;;20.40;81.20;;;;;;4986245;28;20437;-72
2022/08/01 04:50:21;;;;;;;5.60;5.10;;;20.30;81.40;;;;;;4982828;28;20438;-73
2022/08/01 04:52:49;;;;;;;5.65;5.15;;;20.30;81.90;;;;;;4993304;28;20445;-73
2022/08/01 04:55:16;;;;;;;6.70;5.93;;;20.40;81.60;;;;;;4994572;28;20984;-72
2022/08/01 04:57:45;;;;;;;6.28;5.70;;;20.40;81.60;;;;;;4982052;28;20434;-72
2022/08/01 05:00:13;;;;;;;7.80;5.80;;;20.30;81.70;;;;;;4980991;28;20438;-72
2022/08/01 05:02:40;;;;;;;7.20;6.00;;;20.40;81.60;;;;;;4991738;28;20862;-73
2022/08/01 05:05:10;;;;;;;5.80;5.40;;;20.40;81.70;;;;;;4981592;28;20817;-71
2022/08/01 05:07:37;;;;;;;6.80;6.20;;;20.40;81.50;;;;;;4986247;28;20530;-72
2022/08/01 05:10:05;;;;;;;7.50;6.90;;;20.40;81.50;;;;;;4976447;28;20511;-73
2022/08/01 05:12:32;;;;;;;7.05;6.35;;;20.40;81.80;;;;;;4975446;28;20451;-73
2022/08/01 05:14:59;;;;;;;7.20;6.18;;;20.40;81.80;;;;;;4987144;28;20434;-72
2022/08/01 05:17:26;;;;;;;6.28;5.70;;;20.30;82.10;;;;;;4975309;28;20434;-73
2022/08/01 05:19:53;;;;;;;6.97;6.38;;;20.30;82.00;;;;;;4982470;28;20950;-71
2022/08/01 05:22:22;;;;;;;6.93;6.20;;;20.40;81.70;;;;;;4992128;28;20531;-71
2022/08/01 05:24:49;;;;;;;7.30;6.60;;;20.50;81.40;;;;;;4979747;28;20438;-70
2022/08/01 05:27:15;;;;;;;7.55;6.85;;;20.50;81.70;;;;;;4977249;28;20462;-71
2022/08/01 05:29:42;;;;;;;6.30;5.68;;;20.50;81.40;;;;;;4975546;28;21691;-70
2022/08/01 05:32:09;;;;;;;7.70;6.97;;;20.70;80.20;;;;;;4988289;28;20440;-71
2022/08/01 05:34:36;;;;;;;7.85;7.05;;;20.90;79.80;;;;;;4978828;28;20440;-71
2022/08/01 05:37:03;;;;;;;7.10;6.50;;;20.80;79.70;;;;;;4980001;28;20435;-70
2022/08/01 05:39:31;;;;;;;7.00;6.20;;;20.80;80.50;;;;;;4981028;28;20467;-73
2022/08/01 05:41:58;;;;;;;7.83;6.93;;;20.70;81.10;;;;;;4983453;28;20793;-70
2022/08/01 05:44:25;;;;;;;8.98;7.70;;;20.80;81.40;;;;;;4978842;28;20796;-74
2022/08/01 05:46:52;;;;;;;9.07;8.18;;;21.00;83.40;;;;;;4983741;28;20437;-72
2022/08/01 05:49:19;;;;;;;9.70;8.80;;;20.90;84.30;;;;;;4986198;28;20438;-71
2022/08/01 05:51:46;;;;;;;15.20;10.30;;;20.60;84.20;;;;;;4979117;28;20942;-72
2022/08/01 05:54:13;;;;;;;12.00;10.90;;;20.30;85.70;;;;;;4973216;28;20493;-71
2022/08/01 05:56:41;;;;;;;11.65;10.55;;;20.10;87.10;;;;;;4973330;28;20538;-70
2022/08/01 05:59:08;;;;;;;11.47;10.47;;;20.10;88.60;;;;;;4987492;28;20439;-71
2022/08/01 06:01:34;;;;;;;11.35;10.25;;;20.00;87.80;;;;;;4990940;28;20863;-71
2022/08/01 06:04:01;;;;;;;11.70;10.60;;;20.00;88.20;;;;;;4977414;28;20423;-71
2022/08/01 06:06:28;;;;;;;11.38;10.35;;;19.90;87.50;;;;;;4978196;28;20783;-70
2022/08/01 06:08:54;;;;;;;11.80;10.80;;;19.90;87.60;;;;;;4987205;28;20443;-71
2022/08/01 06:11:21;;;;;;;13.05;11.85;;;19.80;88.10;;;;;;4981100;28;21080;-71
2022/08/01 06:13:49;;;;;;;13.25;12.15;;;19.80;88.60;;;;;;4996746;28;20832;-72
2022/08/01 06:16:17;;;;;;;13.73;12.32;;;19.90;88.60;;;;;;4996995;28;20438;-71
2022/08/01 06:18:43;;;;;;;13.43;12.32;;;19.90;88.70;;;;;;4999584;28;20436;-70
2022/08/01 06:21:10;;;;;;;14.10;12.70;;;19.90;88.20;;;;;;4986229;28;20449;-70
2022/08/01 06:23:37;;;;;;;13.65;12.35;;;20.00;88.10;;;;;;4992721;28;20431;-71
2022/08/01 06:26:04;;;;;;;14.27;13.07;;;20.10;87.70;;;;;;4981811;28;20563;-73
2022/08/01 06:28:31;;;;;;;13.30;12.05;;;20.20;87.20;;;;;;4996050;28;20972;-74
2022/08/01 06:31:00;;;;;;;12.40;11.30;;;20.30;86.00;;;;;;5003449;28;20532;-72
2022/08/01 06:33:27;;;;;;;11.85;10.75;;;20.40;86.50;;;;;;4985751;28;20521;-71
2022/08/01 06:35:54;;;;;;;11.48;10.38;;;20.50;86.10;;;;;;4990205;28;20802;-71
2022/08/01 06:38:21;;;;;;;10.38;9.38;;;20.60;86.00;;;;;;4992730;28;20427;-72
2022/08/01 06:40:48;;;;;;;8.73;7.93;;;20.90;82.60;;;;;;4991991;28;20437;-70
2022/08/01 06:43:15;;;;;;;10.70;9.77;;;21.00;82.80;;;;;;4996258;28;20428;-69
2022/08/01 06:45:42;;;;;;;9.65;8.65;;;21.20;81.60;;;;;;4995477;28;20434;-70
2022/08/01 06:48:10;;;;;;;8.95;8.25;;;21.40;80.80;;;;;;4995664;28;22048;-70
2022/08/01 06:50:37;;;;;;;8.70;8.10;;;21.50;81.60;;;;;;4980022;28;20466;-71
2022/08/01 06:53:04;;;;;;;9.63;8.73;;;21.60;79.60;;;;;;4988573;28;20939;-70
2022/08/01 06:55:31;;;;;;;9.30;8.60;;;21.70;79.70;;;;;;4996376;28;20438;-69
2022/08/01 06:57:58;;;;;;;8.35;7.65;;;21.70;78.20;;;;;;4984426;28;20436;-73
2022/08/01 07:00:26;;;;;;;8.82;8.13;;;21.90;77.60;;;;;;4979511;28;20436;-69
2022/08/01 07:02:55;;;;;;;9.40;8.60;;;22.00;76.90;;;;;;4988354;28;20440;-71
2022/08/01 07:05:23;;;;;;;8.05;7.25;;;22.00;76.60;;;;;;4992493;28;20440;-69
2022/08/01 07:07:50;;;;;;;9.47;8.57;;;22.10;75.70;;;;;;5002477;28;20452;-69
2022/08/01 07:10:17;;;;;;;8.25;7.50;;;22.20;74.00;;;;;;4992909;28;20436;-69
2022/08/01 07:12:44;;;;;;;9.50;8.75;;;22.20;74.30;;;;;;4996845;28;20430;-70
2022/08/01 07:15:12;;;;;;;10.00;9.10;;;22.20;74.00;;;;;;4991041;28;20437;-70
2022/08/01 07:17:39;;;;;;;9.57;8.68;;;22.20;74.20;;;;;;4996422;28;20444;-70
2022/08/01 07:20:08;;;;;;;8.43;7.53;;;22.10;75.10;;;;;;4985254;28;20446;-69
2022/08/01 07:22:37;;;;;;;9.60;8.47;;;22.20;74.10;;;;;;4997388;28;20441;-69
2022/08/01 07:25:05;;;;;;;10.23;9.32;;;22.30;73.60;;;;;;5002803;28;20438;-70
2022/08/01 07:27:32;;;;;;;8.32;7.57;;;22.20;72.90;;;;;;4977500;28;20455;-70
2022/08/01 07:29:59;;;;;;;9.40;8.60;;;22.10;74.30;;;;;;4989969;28;20446;-71
2022/08/01 07:32:26;;;;;;;8.73;8.02;;;22.10;74.50;;;;;;4990423;28;20464;-71
2022/08/01 07:34:53;;;;;;;9.52;8.63;;;22.30;73.70;;;;;;4983945;28;20978;-70
2022/08/01 07:37:20;;;;;;;9.03;8.33;;;22.40;74.00;;;;;;4989049;28;20440;-70
2022/08/01 07:39:48;;;;;;;10.10;9.30;;;22.40;74.30;;;;;;4984001;28;20943;-71
2022/08/01 07:42:14;;;;;;;10.57;9.77;;;22.30;72.90;;;;;;4988580;28;20447;-69
2022/08/01 07:44:41;;;;;;;9.35;8.65;;;22.20;72.60;;;;;;4982112;28;20443;-70
2022/08/01 07:47:08;;;;;;;9.30;8.70;;;22.00;73.60;;;;;;4989917;28;20455;-72
2022/08/01 07:49:35;;;;;;;9.57;8.88;;;22.00;73.40;;;;;;4981383;28;20455;-70
2022/08/01 07:52:02;;;;;;;9.00;8.30;;;21.90;74.00;;;;;;4998578;28;20418;-70
2022/08/01 07:54:29;;;;;;;9.03;8.23;;;22.00;74.40;;;;;;4991758;28;20436;-70
2022/08/01 07:56:57;;;;;;;10.52;9.63;;;22.10;74.40;;;;;;4987025;28;20438;-70
2022/08/01 07:59:24;;;;;;;10.77;9.87;;;22.10;72.50;;;;;;4985540;28;20436;-69
2022/08/01 08:01:51;;;;;;;10.97;10.17;;;21.90;72.50;;;;;;4998547;28;20440;-69
2022/08/01 08:04:18;;;;;;;11.10;10.10;;;21.80;73.10;;;;;;4993310;28;20438;-70
2022/08/01 08:06:47;;;;;;;9.80;9.10;;;21.80;73.30;;;;;;4978084;28;20440;-70
2022/08/01 08:09:14;;;;;;;8.70;7.90;;;22.10;73.90;;;;;;4984690;28;20538;-70
2022/08/01 08:11:42;;;;;;;8.63;8.02;;;22.40;72.60;;;;;;4980347;28;20439;-70
2022/08/01 08:14:10;;;;;;;8.93;8.23;;;22.70;69.40;;;;;;4992724;28;20454;-70
2022/08/01 08:16:37;;;;;;;7.90;7.15;;;22.80;69.70;;;;;;4988999;28;20788;-69
2022/08/01 08:19:03;;;;;;;9.02;8.30;;;22.90;69.20;;;;;;4982793;28;20919;-69
2022/08/01 08:21:30;;;;;;;7.63;7.03;;;23.10;67.60;;;;;;5008869;23;20435;-78
2022/08/01 08:26:41;;;;;;;7.60;6.90;;;23.60;67.40;;;;;;4997255;28;20979;-77
2022/08/01 08:29:10;;;;;;;7.70;7.10;;;23.90;65.70;;;;;;4986422;28;20555;-77
2022/08/01 08:31:36;;;;;;;7.80;7.10;;;24.10;64.90;;;;;;4991783;28;20441;-77
2022/08/01 08:34:03;;;;;;;7.25;6.78;;;24.30;63.70;;;;;;4997309;28;20509;-77
2022/08/01 08:36:30;;;;;;;6.70;6.30;;;24.40;64.40;;;;;;4988960;28;20438;-77
2022/08/01 08:38:57;;;;;;;6.85;6.35;;;24.50;63.00;;;;;;4986206;28;20938;-76
2022/08/01 08:41:24;;;;;;;7.65;7.05;;;24.70;61.30;;;;;;4990235;28;20453;-76
2022/08/01 08:43:50;;;;;;;7.00;6.40;;;24.50;61.20;;;;;;4985823;28;20437;-77
2022/08/01 08:46:20;;;;;;;6.45;5.95;;;24.20;63.40;;;;;;4986413;28;20908;-77
2022/08/01 08:48:47;;;;;;;12.17;7.70;;;24.10;63.40;;;;;;4997227;28;20916;-77
2022/08/01 08:51:17;;;;;;;7.43;6.70;;;24.10;64.00;;;;;;4990444;28;20438;-77
2022/08/01 08:53:44;;;;;;;6.47;5.97;;;24.00;63.90;;;;;;4988065;28;20980;-77
2022/08/01 08:56:13;;;;;;;6.40;5.90;;;24.00;62.80;;;;;;4985654;28;20436;-77
2022/08/01 08:58:44;;;;;;;6.20;5.70;;;24.00;63.10;;;;;;4983514;28;20442;-77
2022/08/01 09:01:12;;;;;;;6.05;5.63;;;23.90;63.20;;;;;;4978277;28;20445;-77
2022/08/01 09:03:41;;;;;;;6.63;6.03;;;23.80;63.40;;;;;;4985680;28;20597;-77
2022/08/01 09:06:08;;;;;;;6.40;5.90;;;23.70;63.10;;;;;;4983345;28;20434;-76
2022/08/01 09:08:35;;;;;;;6.47;5.60;;;23.60;63.70;;;;;;4994782;28;20422;-77
2022/08/01 09:11:02;;;;;;;6.53;6.13;;;23.70;64.70;;;;;;4991362;28;20439;-76
2022/08/01 09:13:28;;;;;;;6.70;6.00;;;23.80;63.20;;;;;;4992358;28;20429;-77
2022/08/01 09:15:58;;;;;;;5.70;5.22;;;23.80;63.50;;;;;;4982578;28;20434;-77
2022/08/01 09:18:31;;;;;;;6.05;5.57;;;23.90;63.40;;;;;;4982135;28;20441;-77
2022/08/01 09:21:18;;;;;;;6.05;5.45;;;24.10;62.10;;;;;;4989422;28;20496;-76
2022/08/01 09:23:47;;;;;;;5.97;5.40;;;23.90;61.00;;;;;;4990360;28;20627;-77
2022/08/01 09:26:17;;;;;;;6.05;5.55;;;23.90;62.20;;;;;;4992900;28;20441;-77
2022/08/01 09:28:45;;;;;;;6.07;5.60;;;23.90;62.30;;;;;;4988460;28;20433;-77
2022/08/01 09:31:14;;;;;;;5.50;5.10;;;24.00;61.20;;;;;;4988874;28;20452;-76
2022/08/01 09:33:52;;;;;;;6.00;5.50;;;24.00;61.90;;;;;;4991401;28;20442;-76
2022/08/01 09:36:22;;;;;;;5.57;5.18;;;24.10;61.30;;;;;;4995964;28;20429;-76
2022/08/01 09:38:50;;;;;;;6.40;5.80;;;24.00;61.60;;;;;;4993819;28;20530;-76
2022/08/01 09:41:17;;;;;;;6.03;5.53;;;23.90;62.00;;;;;;4988936;28;20473;-77
2022/08/01 09:43:50;;;;;;;6.20;5.70;;;23.90;62.70;;;;;;4993932;28;20880;-77
2022/08/01 09:46:18;;;;;;;6.68;6.18;;;24.00;62.80;;;;;;4992430;28;20442;-77
2022/08/01 09:48:59;;;;;;;6.10;5.60;;;24.10;62.90;;;;;;4994850;28;20985;-76
2022/08/01 09:51:31;;;;;;;5.70;5.20;;;24.20;61.20;;;;;;4985146;28;20461;-76
2022/08/01 09:53:59;;;;;;;5.82;5.32;;;24.20;61.00;;;;;;4982882;28;21019;-76
2022/08/01 09:56:26;;;;;;;5.85;5.45;;;24.40;60.70;;;;;;4985290;28;20433;-75
2022/08/01 09:58:55;;;;;;;5.70;5.20;;;24.40;59.60;;;;;;4989638;28;20531;-75
2022/08/01 10:01:22;;;;;;;5.50;5.10;;;24.50;60.00;;;;;;4989866;28;20813;-75
2022/08/01 10:04:05;;;;;;;4.75;4.45;;;24.60;60.00;;;;;;4994046;28;20450;-75
2022/08/01 10:06:33;;;;;;;5.93;5.53;;;24.80;57.70;;;;;;4991516;28;20461;-75
2022/08/01 10:09:00;;;;;;;5.00;4.60;;;24.90;58.40;;;;;;4993043;28;20437;-76
2022/08/01 10:11:29;;;;;;;4.82;4.53;;;25.00;58.90;;;;;;4988640;28;20439;-70
2022/08/01 10:13:57;;;;;;;5.10;4.60;;;25.20;58.70;;;;;;4989378;28;20452;-71
2022/08/01 10:16:25;;;;;;;4.70;4.40;;;25.60;57.40;;;;;;4984922;28;20855;-71
2022/08/01 10:18:54;;;;;;;5.00;4.50;;;25.90;56.50;;;;;;4992329;28;20442;-70
2022/08/01 10:21:23;;;;;;;4.30;4.00;;;26.30;55.60;;;;;;4986386;28;20438;-71
2022/08/01 10:23:51;;;;;;;4.60;4.20;;;26.60;54.60;;;;;;4985520;28;20521;-70
2022/08/01 10:26:18;;;;;;;4.60;4.13;;;26.90;54.50;;;;;;4987620;28;20426;-70
2022/08/01 10:28:48;;;;;;;4.20;3.90;;;26.90;54.90;;;;;;4989340;28;20448;-72
2022/08/01 10:31:17;;;;;;;4.20;3.80;;;26.80;55.30;;;;;;4988823;28;20916;-70
2022/08/01 10:33:44;;;;;;;4.30;3.90;;;26.80;56.00;;;;;;4987689;28;20469;-69
2022/08/01 10:36:11;;;;;;;4.25;3.90;;;26.70;54.00;;;;;;4987431;28;20436;-69
2022/08/01 10:38:39;;;;;;;4.30;3.90;;;26.50;55.50;;;;;;4991044;28;20438;-69
2022/08/01 10:41:08;;;;;;;4.30;3.90;;;26.40;54.50;;;;;;4986868;28;20437;-70
2022/08/01 10:43:35;;;;;;;4.20;3.80;;;26.20;53.90;;;;;;4985397;28;20452;-68
2022/08/01 10:46:02;;;;;;;4.13;3.75;;;26.10;53.30;;;;;;4993420;28;20442;-70
2022/08/01 10:48:35;;;;;;;4.70;4.30;;;26.10;53.90;;;;;;4993960;28;20444;-69
2022/08/01 10:51:04;;;;;;;3.90;3.60;;;26.00;54.60;;;;;;4989343;28;20441;-69
2022/08/01 10:53:32;;;;;;;4.53;4.13;;;25.90;54.60;;;;;;4988755;28;20430;-66
2022/08/01 10:56:01;;;;;;;4.50;4.20;;;25.90;54.60;;;;;;4987266;28;20869;-69
2022/08/01 10:58:32;;;;;;;4.55;4.18;;;25.80;55.70;;;;;;4987634;28;20442;-70
2022/08/01 11:01:23;;;;;;;3.95;3.65;;;25.80;54.40;;;;;;4990614;28;21119;-68
2022/08/01 11:04:03;;;;;;;4.40;4.10;;;25.90;54.30;;;;;;4993336;28;20442;-69
2022/08/01 11:06:41;;;;;;;4.03;3.72;;;26.20;53.30;;;;;;4987100;28;20863;-70
2022/08/01 11:09:24;;;;;;;4.37;3.40;;;26.50;52.50;;;;;;4988971;28;20446;-71
2022/08/01 11:12:08;;;;;;;3.50;3.20;;;26.90;49.80;;;;;;4992228;28;20812;-70
2022/08/01 11:15:15;;;;;;;3.50;3.30;;;26.90;50.00;;;;;;4991420;28;20533;-69
2022/08/01 11:17:47;;;;;;;3.97;3.57;;;27.30;50.70;;;;;;4991660;28;20825;-69
2022/08/01 11:20:16;;;;;;;3.40;3.20;;;27.30;50.90;;;;;;4984079;28;20440;-69
2022/08/01 11:23:28;;;;;;;3.90;3.60;;;27.30;50.70;;;;;;4995297;28;20436;-71
2022/08/01 11:26:15;;;;;;;3.58;3.28;;;27.30;50.20;;;;;;4991777;28;20689;-69
2022/08/01 11:28:44;;;;;;;3.40;3.10;;;27.30;50.00;;;;;;4985932;28;20442;-68
2022/08/01 11:31:34;;;;;;;3.10;2.90;;;27.30;50.40;;;;;;4984182;28;20434;-70
2022/08/01 11:34:02;;;;;;;3.20;3.00;;;27.30;50.20;;;;;;4979197;28;20481;-70
2022/08/01 11:36:30;;;;;;;3.50;3.20;;;27.30;50.40;;;;;;4989573;28;20444;-71
2022/08/01 11:39:18;;;;;;;4.13;3.50;;;27.20;50.60;;;;;;4993313;28;20930;-69
2022/08/01 11:41:46;;;;;;;3.13;2.92;;;27.50;49.00;;;;;;4987212;28;20438;-69
2022/08/01 11:44:16;;;;;;;3.28;2.88;;;27.70;48.60;;;;;;4985879;28;20461;-69
2022/08/01 11:47:01;;;;;;;3.80;3.50;;;27.90;49.40;;;;;;4987270;28;20916;-70
2022/08/01 11:49:54;;;;;;;3.35;3.15;;;28.10;48.70;;;;;;4988325;28;20818;-68
2022/08/01 11:52:26;;;;;;;3.42;3.13;;;28.00;48.50;;;;;;4986194;28;20974;-68
2022/08/01 11:54:54;;;;;;;4.50;3.30;;;27.70;48.70;;;;;;4986343;28;20450;-68
2022/08/01 11:57:22;;;;;;;3.55;3.25;;;27.50;47.70;;;;;;4995490;28;20793;-66
2022/08/01 11:59:51;;;;;;;3.13;2.93;;;27.20;45.10;;;;;;4990209;28;20465;-67
2022/08/01 12:02:19;;;;;;;3.10;2.90;;;26.80;47.60;;;;;;4985885;28;20464;-67
2022/08/01 12:04:53;;;;;;;3.30;3.10;;;26.80;47.60;;;;;;4987518;28;20705;-67
2022/08/01 12:07:21;;;;;;;3.13;2.93;;;27.20;47.90;;;;;;4993671;28;20432;-67
2022/08/01 12:09:48;;;;;;;3.40;2.50;;;27.50;47.90;;;;;;4991115;28;20437;-67
2022/08/01 12:12:20;;;;;;;3.17;2.88;;;27.90;45.20;;;;;;4989840;28;20438;-67
2022/08/01 12:14:55;;;;;;;2.50;2.30;;;28.00;44.90;;;;;;4983218;28;20735;-66
2022/08/01 12:17:29;;;;;;;2.70;2.50;;;28.20;44.30;;;;;;4985473;28;20441;-67
2022/08/01 12:19:57;;;;;;;2.80;2.28;;;28.00;43.40;;;;;;4986749;28;20432;-67
2022/08/01 12:22:25;;;;;;;2.70;2.50;;;27.80;46.60;;;;;;4985831;28;20438;-68
2022/08/01 12:24:52;;;;;;;3.30;2.90;;;27.60;46.50;;;;;;4981994;28;20475;-68
2022/08/01 12:27:26;;;;;;;2.90;2.70;;;27.40;47.00;;;;;;4992149;28;20808;-68
2022/08/01 12:29:53;;;;;;;2.78;2.58;;;27.30;46.90;;;;;;4989699;28;20943;-67
2022/08/01 12:32:25;;;;;;;2.90;2.60;;;27.20;47.90;;;;;;4985370;28;20434;-68
2022/08/01 12:34:53;;;;;;;3.10;2.90;;;27.00;48.40;;;;;;4990401;28;20445;-68
2022/08/01 12:37:22;;;;;;;2.80;2.60;;;26.80;49.70;;;;;;4988432;28;20445;-68
2022/08/01 12:39:50;;;;;;;2.88;2.67;;;26.80;49.30;;;;;;4987075;28;20541;-67
2022/08/01 12:42:16;;;;;;;2.50;2.30;;;27.20;47.10;;;;;;4988541;28;20911;-66
2022/08/01 12:44:46;;;;;;;2.80;2.60;;;27.30;47.00;;;;;;4991230;28;20916;-67
2022/08/01 12:47:14;;;;;;;2.75;2.55;;;27.30;46.30;;;;;;4993070;28;20440;-67
2022/08/01 12:49:43;;;;;;;2.90;2.50;;;27.30;46.70;;;;;;4988950;28;20430;-67
2022/08/01 12:52:10;;;;;;;3.20;2.80;;;27.20;44.00;;;;;;4981403;28;20434;-67
2022/08/01 12:55:05;;;;;;;2.38;2.17;;;27.20;45.30;;;;;;4985792;28;20946;-67
2022/08/01 12:57:33;;;;;;;2.47;2.28;;;27.20;43.70;;;;;;4983603;28;20793;-68
2022/08/01 13:00:08;;;;;;;2.10;2.00;;;27.30;43.90;;;;;;4990487;28;20512;-66
2022/08/01 13:02:36;;;;;;;2.20;2.10;;;27.40;45.60;;;;;;4987825;28;20970;-68